Time;durP1;ratioP1;P1;durP2;ratioP2;P2;SDS_P1;SDS_P2;PMS_P1;PMS_P2;Temp;Humidity;BMP_temperature;BMP_pressure;BME280_temperature;BME280_humidity;BME280_pressure;Samples;Min_cycle;Max_cycle;Signal;HPM_P1;HPM_P2
2021/09/30 00:01:30;;;;;;;21.70;11.50;;;;;;;6.17;76.01;101164.80;116586;1201;22990;-54
2021/09/30 00:03:58;;;;;;;18.20;10.90;;;;;;;6.14;76.05;101164.80;116494;1201;137524;-54
2021/09/30 00:06:26;;;;;;;18.50;11.40;;;;;;;6.13;76.20;101169.65;116559;1201;22266;-62
2021/09/30 00:08:55;;;;;;;20.20;11.30;;;;;;;6.12;76.23;101169.10;116499;1201;137604;-62
2021/09/30 00:11:41;;;;;;;22.50;11.70;;;;;;;6.09;76.15;101167.73;116539;1201;22235;-63
2021/09/30 00:14:18;;;;;;;15.80;10.80;;;;;;;6.08;76.21;101170.95;116440;1201;137893;-63
2021/09/30 00:36:09;;;;;;;16.70;11.00;;;;;;;6.08;75.91;101162.34;116495;1202;22374;-63
2021/09/30 01:22:16;;;;;;;14.00;10.80;;;;;;;5.78;75.87;101166.56;112269;1196;139224;-59
2021/09/30 02:19:53;;;;;;;20.60;13.10;;;;;;;5.02;78.92;101160.02;116632;1200;22329;-61
2021/09/30 02:22:33;;;;;;;19.10;10.70;;;;;;;5.02;79.46;101157.70;116331;1201;138691;-61
2021/09/30 02:39:54;;;;;;;22.00;12.10;;;;;;;5.17;79.42;101159.09;116591;1200;23096;-62
2021/09/30 02:58:47;;;;;;;22.20;11.80;;;;;;;5.08;78.30;101163.27;116494;1200;124288;-60
2021/09/30 03:01:17;;;;;;;17.80;10.90;;;;;;;5.00;78.70;101164.77;116651;1200;22318;-61
2021/09/30 03:03:46;;;;;;;18.90;12.40;;;;;;;4.97;78.86;101164.96;116452;1201;138161;-61
2021/09/30 03:06:14;;;;;;;20.00;12.40;;;;;;;4.94;79.49;101162.41;116598;1200;22896;-61
2021/09/30 03:08:47;;;;;;;17.20;11.70;;;;;;;4.94;79.80;101165.14;116565;1187;22328;-61
2021/09/30 03:11:16;;;;;;;20.70;11.70;;;;;;;4.93;79.70;101166.80;116524;1200;138578;-61
2021/09/30 03:13:45;;;;;;;19.20;12.80;;;;;;;4.95;79.97;101167.34;116715;1200;22465;-61
2021/09/30 03:19:03;;;;;;;16.40;11.40;;;;;;;4.98;79.92;101166.43;116660;1200;22289;-54
2021/09/30 03:24:19;;;;;;;17.60;12.00;;;;;;;5.04;79.58;101169.83;116575;1200;23146;-54
2021/09/30 03:26:47;;;;;;;19.00;12.30;;;;;;;5.05;79.25;101167.00;116699;1200;22315;-54
2021/09/30 03:29:16;;;;;;;17.00;10.30;;;;;;;5.04;79.02;101165.72;116588;1199;138174;-54
2021/09/30 03:31:46;;;;;;;17.60;10.10;;;;;;;5.02;78.63;101166.38;116599;1201;22359;-54
2021/09/30 03:34:34;;;;;;;17.90;10.80;;;;;;;4.97;78.54;101161.55;116313;1200;138067;-54
2021/09/30 03:37:03;;;;;;;20.20;12.40;;;;;;;4.92;78.58;101165.45;116576;1201;22246;-60
2021/09/30 03:39:31;;;;;;;14.40;10.80;;;;;;;4.91;78.69;101163.89;116530;1200;138741;-61
2021/09/30 03:41:59;;;;;;;17.70;11.80;;;;;;;4.89;78.92;101160.89;116612;1200;22301;-62
2021/09/30 03:44:34;;;;;;;22.10;12.40;;;;;;;4.88;78.90;101161.70;116575;1201;22318;-61
2021/09/30 03:47:03;;;;;;;16.90;11.30;;;;;;;4.89;79.10;101159.30;116538;1199;137848;-53
2021/09/30 03:49:38;;;;;;;14.60;10.70;;;;;;;4.88;79.03;101162.40;116636;1193;22904;-53
2021/09/30 03:52:24;;;;;;;21.20;13.40;;;;;;;4.87;78.59;101166.13;116592;1193;137997;-53
2021/09/30 03:59:05;;;;;;;14.80;10.80;;;;;;;4.79;78.52;101162.63;116534;1201;138024;-54
2021/09/30 04:00:24;;;;;;;15.30;11.00;;;;;;;4.74;78.28;101168.55;116635;1200;23493;-54
2021/09/30 04:02:53;;;;;;;20.80;14.10;;;;;;;4.68;77.76;101170.74;116630;1201;23176;-54
2021/09/30 04:05:21;;;;;;;20.30;12.60;;;;;;;4.60;77.93;101171.08;116500;1200;138274;-54
2021/09/30 04:07:49;;;;;;;20.70;13.50;;;;;;;4.56;78.27;101171.98;116681;1201;22295;-53
2021/09/30 04:10:37;;;;;;;;;;;;;;;4.48;78.15;101169.48;116576;1200;138985;-55
2021/09/30 04:13:05;;;;;;;;;;;;;;;4.43;78.48;101175.77;116652;1200;22895;-54
2021/09/30 04:15:33;;;;;;;23.60;12.40;;;;;;;4.37;78.54;101175.83;115676;1200;124444;-61
2021/09/30 04:18:03;;;;;;;23.90;11.90;;;;;;;4.31;78.68;101177.42;112429;1200;22756;-61
2021/09/30 04:20:33;;;;;;;18.30;12.50;;;;;;;4.28;78.80;101177.20;116677;1200;22330;-62
2021/09/30 04:23:04;;;;;;;22.50;14.30;;;;;;;4.25;79.00;101173.02;116536;1201;138082;-62
2021/09/30 04:25:34;;;;;;;21.70;11.70;;;;;;;4.23;79.04;101174.69;116674;1201;23056;-62
2021/09/30 04:28:03;;;;;;;19.70;12.00;;;;;;;4.22;79.36;101179.18;116497;1201;138086;-62
2021/09/30 04:30:32;;;;;;;22.40;13.30;;;;;;;4.22;79.20;101178.02;116632;1201;22249;-62
2021/09/30 04:33:22;;;;;;;20.90;12.80;;;;;;;4.18;79.16;101174.77;116511;1199;138076;-62
2021/09/30 04:35:52;;;;;;;20.00;12.20;;;;;;;4.21;79.45;101179.07;116572;1200;22337;-62
2021/09/30 04:38:20;;;;;;;23.60;14.10;;;;;;;4.21;79.63;101181.70;116690;1200;22583;-62
2021/09/30 04:40:49;;;;;;;18.50;13.00;;;;;;;4.24;80.04;101183.95;116552;1201;138830;-62
2021/09/30 04:43:17;;;;;;;27.10;13.40;;;;;;;4.27;80.09;101186.38;116624;1201;22848;-62
2021/09/30 04:45:48;;;;;;;26.60;12.30;;;;;;;4.30;80.83;101187.04;116567;1200;138645;-62
2021/09/30 04:48:18;;;;;;;24.90;14.00;;;;;;;4.38;80.81;101188.94;116637;1200;22384;-62
2021/09/30 04:50:54;;;;;;;27.70;14.40;;;;;;;4.46;81.03;101186.44;116609;1200;22345;-62
2021/09/30 04:53:23;;;;;;;21.30;12.30;;;;;;;4.57;81.18;101190.73;116494;1200;138625;-62
2021/09/30 04:55:51;;;;;;;25.50;14.80;;;;;;;4.65;81.34;101190.53;115330;1200;25084;-54
2021/09/30 04:58:20;;;;;;;21.40;12.70;;;;;;;4.74;81.29;101193.09;116657;1200;138170;-53
2021/09/30 05:00:48;;;;;;;26.20;14.30;;;;;;;4.83;81.30;101189.51;116653;1200;22149;-54
2021/09/30 05:03:18;;;;;;;30.30;15.20;;;;;;;4.92;81.36;101189.14;116469;1200;138958;-55
2021/09/30 05:05:46;;;;;;;26.70;16.10;;;;;;;5.02;81.60;101184.20;116667;1200;22300;-55
2021/09/30 05:08:16;;;;;;;34.90;15.50;;;;;;;5.16;81.85;101188.64;116607;1200;22230;-60
2021/09/30 05:10:45;;;;;;;29.90;15.00;;;;;;;5.30;81.94;101190.71;116641;1199;138532;-63
2021/09/30 05:13:20;;;;;;;31.80;16.70;;;;;;;5.46;81.91;101194.67;116738;1199;22399;-63
2021/09/30 05:15:49;;;;;;;26.50;16.40;;;;;;;5.63;81.84;101193.77;116458;1193;138144;-63
2021/09/30 05:18:36;;;;;;;34.50;16.70;;;;;;;5.83;82.13;101193.62;116822;1199;22355;-63
2021/09/30 05:21:07;;;;;;;32.50;16.90;;;;;;;6.03;81.78;101194.63;116615;1200;22317;-63
2021/09/30 05:23:35;;;;;;;34.50;18.70;;;;;;;6.20;81.72;101197.06;116395;1200;138111;-63
2021/09/30 05:26:03;;;;;;;29.60;16.70;;;;;;;6.35;81.17;101197.20;116684;1199;22237;-63
2021/09/30 05:28:32;;;;;;;24.20;15.10;;;;;;;6.50;80.92;101201.88;116473;1200;137890;-63
2021/09/30 05:31:01;;;;;;;28.10;15.00;;;;;;;6.62;80.74;101199.20;116715;1200;22562;-63
2021/09/30 05:34:01;;;;;;;32.20;16.30;;;;;;;6.79;80.38;101199.97;116368;1199;138232;-63
2021/09/30 05:36:33;;;;;;;26.10;16.60;;;;;;;6.92;79.97;101204.85;116648;1200;23229;-63
2021/09/30 05:39:01;;;;;;;26.50;16.70;;;;;;;7.03;79.46;101203.59;116619;1200;22384;-63
2021/09/30 05:41:31;;;;;;;24.40;15.60;;;;;;;7.16;79.06;101207.30;116500;1200;137899;-63
2021/09/30 05:44:09;;;;;;;36.50;16.70;;;;;;;7.25;78.38;101205.63;116590;1193;22375;-62
2021/09/30 05:46:45;;;;;;;36.40;18.10;;;;;;;7.36;77.70;101207.38;116580;1200;139458;-62
2021/09/30 05:49:13;;;;;;;31.20;17.60;;;;;;;7.46;77.40;101210.06;116543;1199;22336;-63
2021/09/30 05:51:42;;;;;;;37.70;18.30;;;;;;;7.55;77.02;101208.20;116548;1200;138192;-62
2021/09/30 05:54:36;;;;;;;30.40;16.40;;;;;;;7.62;76.06;101207.77;116664;1200;22329;-62
2021/09/30 05:57:23;;;;;;;23.50;16.60;;;;;;;7.68;75.89;101207.14;116624;1199;140306;-62
2021/09/30 05:59:51;;;;;;;34.90;18.10;;;;;;;7.73;75.14;101209.23;116711;1199;22410;-62
2021/09/30 06:10:51;;;;;;;24.00;14.70;;;;;;;7.92;74.10;101218.33;115907;1203;139820;-63
2021/09/30 06:16:35;;;;;;;24.80;14.20;;;;;;;8.09;72.83;101222.42;116047;1204;138599;-64
2021/09/30 06:19:23;;;;;;;21.60;13.00;;;;;;;8.17;73.13;101216.55;116182;1200;24193;-64
2021/09/30 06:21:58;;;;;;;19.00;11.80;;;;;;;8.27;71.63;101216.72;116045;1204;139335;-64
2021/09/30 06:24:26;;;;;;;20.10;12.20;;;;;;;8.31;70.31;101215.04;116172;1204;22309;-64
2021/09/30 06:26:59;;;;;;;17.60;12.00;;;;;;;8.36;70.29;101214.05;116089;1200;22270;-65
2021/09/30 06:29:27;;;;;;;19.00;12.40;;;;;;;8.40;70.11;101217.61;116039;1196;138777;-64
2021/09/30 06:31:58;;;;;;;16.10;11.00;;;;;;;8.42;69.36;101217.16;116151;1204;22267;-64
2021/09/30 06:34:45;;;;;;;23.10;12.30;;;;;;;8.44;69.36;101220.80;116062;1196;138438;-64
2021/09/30 06:37:18;;;;;;;16.70;10.90;;;;;;;8.49;69.52;101222.67;116187;1204;22481;-65
2021/09/30 06:39:47;;;;;;;19.80;12.30;;;;;;;8.56;69.16;101220.97;116012;1204;139311;-62
2021/09/30 06:42:15;;;;;;;22.80;11.90;;;;;;;8.59;68.33;101225.42;116194;1196;22378;-63
2021/09/30 06:44:46;;;;;;;20.50;12.10;;;;;;;8.59;68.11;101224.71;116095;1204;22170;-63
2021/09/30 06:47:37;;;;;;;25.50;12.40;;;;;;;8.58;67.37;101226.50;116141;1199;138358;-62
2021/09/30 06:50:27;;;;;;;26.20;13.10;;;;;;;8.54;67.84;101229.16;116630;1201;22216;-62
2021/09/30 06:53:19;;;;;;;24.10;12.50;;;;;;;8.52;67.96;101231.61;116565;1201;138193;-65
2021/09/30 06:55:49;;;;;;;26.30;12.10;;;;;;;8.48;68.09;101235.38;116611;1200;22320;-65
2021/09/30 06:58:45;;;;;;;;;;;;;;;8.45;68.18;101230.38;116561;1201;138211;-62
2021/09/30 07:01:51;;;;;;;21.40;12.30;;;;;;;8.38;68.17;101233.64;116374;1200;22397;-64
2021/09/30 07:04:38;;;;;;;17.10;11.50;;;;;;;8.35;68.62;101234.67;116493;1200;138055;-64
2021/09/30 07:07:21;;;;;;;19.50;12.20;;;;;;;8.33;68.48;101232.67;116632;1200;22331;-65
2021/09/30 07:09:49;;;;;;;29.30;14.40;;;;;;;8.33;68.44;101237.14;116513;1201;138373;-62
2021/09/30 07:12:38;;;;;;;;;;;;;;;8.34;68.66;101235.52;116711;1200;22365;-62
2021/09/30 07:15:06;;;;;;;22.30;12.40;;;;;;;8.39;69.09;101237.11;116658;1201;23093;-63
2021/09/30 07:17:37;;;;;;;19.70;11.60;;;;;;;8.46;69.34;101233.73;116557;1201;139511;-63
2021/09/30 07:20:06;;;;;;;20.40;12.40;;;;;;;8.55;69.72;101228.54;116687;1201;22288;-64
2021/09/30 07:22:34;;;;;;;25.80;11.30;;;;;;;8.64;69.63;101228.03;116503;1200;138746;-65
2021/09/30 07:25:03;;;;;;;16.90;10.10;;;;;;;8.76;69.07;101235.02;116681;1200;23221;-62
2021/09/30 07:27:31;;;;;;;15.60;9.60;;;;;;;8.85;67.75;101233.77;116535;1200;139061;-64
2021/09/30 07:30:00;;;;;;;14.20;8.60;;;;;;;8.93;67.56;101232.67;116669;1201;23251;-64
2021/09/30 07:32:29;;;;;;;16.40;8.70;;;;;;;9.01;67.24;101235.79;116707;1200;22552;-64
2021/09/30 07:34:57;;;;;;;24.20;10.30;;;;;;;9.08;66.93;101238.98;116567;1200;139058;-63
2021/09/30 07:37:25;;;;;;;24.10;11.40;;;;;;;9.13;66.41;101242.45;116619;1200;22222;-64
2021/09/30 07:39:53;;;;;;;19.50;11.60;;;;;;;9.16;65.67;101236.11;116562;1200;138149;-63
2021/09/30 07:42:21;;;;;;;29.90;10.70;;;;;;;9.16;66.46;101237.45;116552;1200;22330;-63
2021/09/30 07:44:50;;;;;;;19.40;11.50;;;;;;;9.21;66.42;101238.71;116645;1193;22277;-64
2021/09/30 07:47:18;;;;;;;15.50;9.70;;;;;;;9.25;66.52;101238.88;116460;1200;138374;-63
2021/09/30 07:49:46;;;;;;;16.80;9.10;;;;;;;9.27;65.40;101234.98;116556;1193;22264;-63
2021/09/30 07:52:16;;;;;;;22.20;10.60;;;;;;;9.23;65.55;101241.27;116384;1201;138672;-64
2021/09/30 07:54:44;;;;;;;13.90;9.10;;;;;;;9.22;65.76;101235.86;116587;1193;23405;-66
2021/09/30 07:57:12;;;;;;;11.40;8.90;;;;;;;9.25;65.53;101241.08;116555;1200;23218;-65
2021/09/30 07:59:41;;;;;;;15.50;8.90;;;;;;;9.25;65.61;101239.91;116476;1193;141675;-65
2021/09/30 08:02:09;;;;;;;13.60;8.50;;;;;;;9.27;65.75;101238.38;116625;1193;22301;-65
2021/09/30 08:04:38;;;;;;;12.00;7.30;;;;;;;9.31;65.51;101235.71;116485;1200;140785;-65
2021/09/30 08:07:06;;;;;;;8.70;6.30;;;;;;;9.36;65.15;101237.52;116675;1200;22293;-64
2021/09/30 08:09:39;;;;;;;9.60;7.40;;;;;;;9.41;64.50;101242.02;116482;1193;138937;-64
2021/09/30 08:12:13;;;;;;;11.20;8.20;;;;;;;9.46;64.36;101241.63;116604;1201;22272;-65
2021/09/30 08:14:41;;;;;;;9.60;6.90;;;;;;;9.47;64.48;101239.38;116614;1193;23485;-65
2021/09/30 08:17:09;;;;;;;8.80;7.30;;;;;;;9.53;64.62;101240.45;116524;1200;137793;-66
2021/09/30 08:19:44;;;;;;;10.80;7.10;;;;;;;9.57;64.19;101242.38;116574;1193;22396;-64
2021/09/30 08:22:12;;;;;;;12.80;5.90;;;;;;;9.62;63.64;101240.79;116522;1200;138248;-65
2021/09/30 08:24:40;;;;;;;15.50;6.90;;;;;;;9.65;63.26;101239.50;116603;1200;23302;-65
2021/09/30 08:27:10;;;;;;;10.20;6.90;;;;;;;9.69;63.28;101239.73;116660;1200;23020;-66
2021/09/30 08:29:38;;;;;;;10.80;6.80;;;;;;;9.71;63.60;101234.88;116530;1201;137932;-65
2021/09/30 08:32:08;;;;;;;10.20;6.80;;;;;;;9.77;63.63;101236.64;116675;1201;23523;-66
2021/09/30 08:34:36;;;;;;;8.50;6.80;;;;;;;9.78;63.16;101237.89;116500;1197;138478;-66
2021/09/30 08:37:04;;;;;;;10.90;7.20;;;;;;;9.76;63.12;101236.92;116725;1200;22299;-66
2021/09/30 08:39:32;;;;;;;8.80;6.10;;;;;;;9.74;63.55;101236.27;116558;1200;139137;-66
2021/09/30 08:42:03;;;;;;;8.00;6.10;;;;;;;9.73;63.44;101230.98;116653;1201;22362;-65
2021/09/30 08:44:33;;;;;;;9.10;5.60;;;;;;;9.74;63.36;101236.51;116682;1200;22950;-65
2021/09/30 08:47:02;;;;;;;7.20;5.20;;;;;;;9.77;63.22;101236.09;116531;1200;138889;-67
2021/09/30 08:49:32;;;;;;;13.20;5.40;;;;;;;9.79;62.47;101239.29;116712;1200;22681;-64
2021/09/30 08:52:01;;;;;;;9.00;6.20;;;;;;;9.80;62.62;101239.78;116554;1200;138409;-64
2021/09/30 08:54:29;;;;;;;7.70;5.30;;;;;;;9.83;62.46;101234.86;116677;1201;22314;-63
2021/09/30 08:56:57;;;;;;;17.70;8.20;;;;;;;9.84;62.12;101235.98;116550;1201;22286;-64
2021/09/30 08:59:26;;;;;;;8.30;5.30;;;;;;;9.85;62.10;101225.89;116569;1200;137871;-64
2021/09/30 09:02:11;;;;;;;15.30;10.50;;;;;;;9.86;61.88;101223.18;116622;1186;23347;-64
2021/09/30 09:04:57;;;;;;;10.20;6.30;;;;;;;9.89;61.99;101230.05;116556;1200;138616;-63
2021/09/30 09:07:27;;;;;;;11.20;7.40;;;;;;;9.91;61.95;101223.93;116626;1200;23103;-63
2021/09/30 09:09:57;;;;;;;10.20;6.60;;;;;;;9.96;61.57;101226.67;116569;1200;138027;-63
2021/09/30 09:12:26;;;;;;;9.10;4.90;;;;;;;9.99;60.84;101223.61;116623;1200;22321;-64
2021/09/30 09:14:55;;;;;;;8.40;4.70;;;;;;;9.97;60.97;101216.58;116617;1201;22421;-64
2021/09/30 09:17:24;;;;;;;7.90;5.80;;;;;;;9.97;60.97;101218.75;116492;1200;137464;-63
2021/09/30 09:19:54;;;;;;;9.00;6.30;;;;;;;9.95;60.71;101220.20;116665;1201;22478;-64
2021/09/30 09:22:32;;;;;;;7.70;5.70;;;;;;;9.92;60.89;101219.58;116560;1200;140608;-63
2021/09/30 09:25:08;;;;;;;9.80;6.10;;;;;;;9.90;61.03;101223.30;116662;1201;22393;-64
2021/09/30 09:27:50;;;;;;;15.70;6.20;;;;;;;9.87;60.75;101223.80;116919;1198;138626;-65
2021/09/30 09:30:32;;;;;;;8.80;6.50;;;;;;;9.83;61.51;101224.14;116987;1198;23744;-63
2021/09/30 09:33:31;;;;;;;18.10;13.20;;;;;;;9.84;61.59;101227.16;117008;1198;22210;-64
2021/09/30 09:36:05;;;;;;;9.70;7.40;;;;;;;9.86;61.79;101221.50;115301;1199;138697;-63
2021/09/30 09:38:54;;;;;;;12.80;7.50;;;;;;;9.90;61.16;101224.86;112882;1198;24171;-61
2021/09/30 09:41:23;;;;;;;11.00;7.80;;;;;;;9.91;61.10;101218.83;116946;1198;137525;-65
2021/09/30 09:43:53;;;;;;;10.90;7.80;;;;;;;9.93;60.96;101221.09;116995;1198;23147;-64
2021/09/30 09:46:22;;;;;;;19.30;12.70;;;;;;;9.95;60.60;101219.27;116627;1199;137089;-65
2021/09/30 09:48:57;;;;;;;22.50;15.90;;;;;;;9.99;60.39;101223.98;116993;1198;22339;-66
2021/09/30 09:51:32;;;;;;;20.30;12.50;;;;;;;10.00;60.33;101218.88;116925;1199;22330;-64
2021/09/30 09:54:00;;;;;;;16.50;10.40;;;;;;;10.05;60.48;101221.68;116792;1198;137816;-65
2021/09/30 09:56:29;;;;;;;12.30;8.30;;;;;;;10.11;60.73;101223.13;117004;1198;22281;-65
2021/09/30 09:58:57;;;;;;;12.20;8.30;;;;;;;10.15;59.86;101222.77;116791;1193;138470;-64
2021/09/30 10:01:42;;;;;;;13.80;8.90;;;;;;;10.16;59.56;101220.56;117062;1197;22467;-64
2021/09/30 10:04:12;;;;;;;9.40;8.00;;;;;;;10.13;59.04;101225.76;116894;1198;138131;-64
2021/09/30 10:06:42;;;;;;;13.00;9.20;;;;;;;10.11;59.20;101224.20;116903;1197;23186;-65
2021/09/30 10:09:14;;;;;;;12.90;8.30;;;;;;;10.13;59.68;101220.98;116997;1198;22478;-64
2021/09/30 10:12:02;;;;;;;13.00;9.00;;;;;;;10.16;59.10;101220.39;116865;1198;137108;-64
2021/09/30 10:14:33;;;;;;;12.30;9.40;;;;;;;10.20;59.07;101217.94;116966;1198;22329;-65
2021/09/30 10:17:01;;;;;;;20.50;10.00;;;;;;;10.23;59.04;101220.20;116779;1198;138223;-63
2021/09/30 10:19:30;;;;;;;17.30;9.20;;;;;;;10.24;58.75;101222.58;117080;1198;23003;-64
2021/09/30 10:21:58;;;;;;;11.80;8.90;;;;;;;10.22;58.53;101219.78;116868;1198;138859;-63
2021/09/30 10:24:27;;;;;;;14.20;7.60;;;;;;;10.23;58.60;101224.36;117094;1197;22251;-62
2021/09/30 10:27:06;;;;;;;13.60;8.20;;;;;;;10.20;58.30;101217.90;116993;1197;22333;-63
2021/09/30 10:29:45;;;;;;;11.40;7.70;;;;;;;10.21;58.29;101218.91;116814;1198;137508;-63
2021/09/30 10:32:19;;;;;;;11.00;8.40;;;;;;;10.20;58.44;101218.95;116956;1199;22337;-63
2021/09/30 10:34:51;;;;;;;11.90;8.30;;;;;;;10.21;58.61;101216.31;116865;1198;137837;-63
2021/09/30 10:37:20;;;;;;;12.80;9.00;;;;;;;10.21;57.94;101219.04;116989;1198;22359;-62
2021/09/30 10:40:24;;;;;;;13.40;9.20;;;;;;;10.19;58.01;101214.43;116835;1198;138008;-63
2021/09/30 10:42:53;;;;;;;15.80;8.80;;;;;;;10.16;58.13;101216.29;117020;1198;22370;-63
2021/09/30 10:45:38;;;;;;;11.50;9.70;;;;;;;10.14;58.21;101216.33;116917;1198;23135;-62
2021/09/30 10:48:07;;;;;;;12.40;9.80;;;;;;;10.14;58.50;101211.43;116809;1198;137700;-62
2021/09/30 10:50:54;;;;;;;11.60;9.00;;;;;;;10.20;59.21;101212.59;116937;1194;22235;-64
2021/09/30 10:53:46;;;;;;;12.20;10.30;;;;;;;10.28;59.54;101207.89;116860;1198;137091;-64
2021/09/30 10:56:24;;;;;;;12.50;8.50;;;;;;;10.39;59.75;101209.20;117061;1198;22266;-64
2021/09/30 10:58:57;;;;;;;12.50;8.90;;;;;;;10.51;59.40;101203.95;116849;1198;137844;-63
2021/09/30 11:01:25;;;;;;;9.90;7.60;;;;;;;10.61;59.22;101207.18;117029;1198;23683;-64
2021/09/30 11:03:57;;;;;;;10.40;7.30;;;;;;;10.71;58.93;101203.59;116835;1198;138929;-64
2021/09/30 11:06:26;;;;;;;10.80;7.60;;;;;;;10.75;57.84;101193.48;117094;1198;22246;-64
2021/09/30 11:09:17;;;;;;;12.30;7.90;;;;;;;10.73;57.61;101192.35;117006;1198;22319;-65
2021/09/30 11:11:48;;;;;;;12.80;8.30;;;;;;;10.76;58.58;101194.14;116905;1198;138959;-63
2021/09/30 11:14:21;;;;;;;16.60;7.70;;;;;;;10.82;58.29;101187.60;116942;1198;22244;-64
2021/09/30 11:18:51;;;;;;;10.20;7.50;;;;;;;10.92;58.25;101183.05;110669;1214;545038;-64
2021/09/30 11:21:27;;;;;;;12.40;7.50;;;;;;;10.96;57.98;101178.16;116192;1204;23523;-64
2021/09/30 11:23:59;;;;;;;15.20;8.00;;;;;;;10.98;57.61;101181.87;116064;1204;136958;-65
2021/09/30 11:26:32;;;;;;;13.60;7.70;;;;;;;11.01;57.79;101183.29;116126;1203;22412;-65
2021/09/30 11:29:24;;;;;;;10.80;7.90;;;;;;;11.06;57.59;101181.54;115993;1204;137694;-63
2021/09/30 11:31:54;;;;;;;8.60;7.00;;;;;;;11.12;57.57;101180.10;116966;1198;22247;-63
2021/09/30 11:34:42;;;;;;;12.70;7.20;;;;;;;11.16;57.03;101174.70;116852;1198;136616;-64
2021/09/30 11:37:17;;;;;;;10.10;7.50;;;;;;;11.19;56.79;101171.67;116921;1198;22744;-65
2021/09/30 11:39:49;;;;;;;12.20;6.70;;;;;;;11.19;56.46;101167.46;117024;1198;22987;-63
2021/09/30 11:42:18;;;;;;;8.10;7.20;;;;;;;11.18;56.69;101164.95;116883;1198;137333;-64
2021/09/30 11:45:06;;;;;;;26.50;8.90;;;;;;;11.18;56.78;101162.14;117007;1198;22378;-64
2021/09/30 11:47:34;;;;;;;12.30;7.60;;;;;;;11.21;56.73;101160.36;116875;1198;139011;-64
2021/09/30 11:50:03;;;;;;;9.30;7.00;;;;;;;11.24;56.14;101158.16;116973;1198;22339;-64
2021/09/30 11:52:31;;;;;;;9.60;7.30;;;;;;;11.25;56.27;101157.09;116848;1198;136954;-64
2021/09/30 11:55:11;;;;;;;8.80;6.90;;;;;;;11.28;56.48;101155.21;116896;1198;23313;-64
2021/09/30 11:57:39;;;;;;;13.80;7.60;;;;;;;11.29;56.07;101152.21;116867;1198;22334;-63
2021/09/30 12:00:12;;;;;;;11.20;7.10;;;;;;;11.31;56.40;101153.25;116477;1199;140107;-63
2021/09/30 12:03:04;;;;;;;10.70;7.20;;;;;;;11.34;56.28;101153.78;117000;1184;22387;-64
2021/09/30 12:05:36;;;;;;;11.20;7.30;;;;;;;11.36;56.41;101149.15;116689;1198;137217;-64
2021/09/30 12:08:06;;;;;;;8.20;6.60;;;;;;;11.36;56.35;101143.27;116927;1198;22432;-64
2021/09/30 12:10:36;;;;;;;13.40;8.00;;;;;;;11.40;56.22;101140.83;116838;1198;137328;-64
2021/09/30 12:13:11;;;;;;;15.30;7.80;;;;;;;11.43;56.70;101136.01;116929;1198;22342;-65
2021/09/30 12:15:39;;;;;;;11.70;7.90;;;;;;;11.49;56.89;101131.55;116986;1198;22406;-64
2021/09/30 12:18:19;;;;;;;8.50;6.90;;;;;;;11.53;56.12;101130.98;116821;1198;138012;-64
2021/09/30 12:20:57;;;;;;;10.50;7.40;;;;;;;11.54;55.48;101128.23;117002;1198;24496;-65
2021/09/30 12:23:46;;;;;;;10.40;7.50;;;;;;;11.54;55.44;101126.64;116876;1198;138029;-64
2021/09/30 12:26:16;;;;;;;12.40;7.80;;;;;;;11.52;55.49;101122.17;116956;1198;22227;-65
2021/09/30 12:28:45;;;;;;;9.90;6.60;;;;;;;11.54;55.69;101120.38;116819;1194;137409;-63
2021/09/30 12:31:16;;;;;;;13.60;7.90;;;;;;;11.56;55.58;101120.47;116948;1198;22242;-63
2021/09/30 12:33:44;;;;;;;8.90;6.60;;;;;;;11.58;55.31;101120.26;116944;1198;22431;-63
2021/09/30 12:36:14;;;;;;;18.60;8.50;;;;;;;11.58;55.22;101117.39;116861;1198;136600;-63
2021/09/30 12:38:57;;;;;;;12.10;7.30;;;;;;;11.58;55.06;101117.64;116975;1198;23064;-64
2021/09/30 12:41:26;;;;;;;10.80;7.30;;;;;;;11.56;55.32;101113.55;116859;1198;136838;-63
2021/09/30 12:43:55;;;;;;;11.90;8.30;;;;;;;11.57;54.88;101111.82;117001;1198;22260;-63
2021/09/30 12:46:23;;;;;;;16.50;8.40;;;;;;;11.56;55.16;101110.77;116843;1198;137699;-63
2021/09/30 12:48:51;;;;;;;10.50;7.40;;;;;;;11.58;54.97;101109.83;116904;1198;22400;-62
2021/09/30 12:51:23;;;;;;;14.50;8.70;;;;;;;11.59;54.87;101105.66;116807;1192;22314;-63
2021/09/30 12:53:52;;;;;;;11.60;7.90;;;;;;;11.60;54.77;101106.67;116854;1198;137242;-63
2021/09/30 12:56:22;;;;;;;10.00;7.60;;;;;;;11.61;55.10;101103.46;114773;1198;22532;-61
2021/09/30 12:58:51;;;;;;;10.60;7.40;;;;;;;11.63;54.86;101105.00;116827;1198;138084;-63
2021/09/30 13:01:33;;;;;;;9.70;6.80;;;;;;;11.64;55.05;101097.98;116943;1198;22323;-63
2021/09/30 13:04:05;;;;;;;10.50;6.60;;;;;;;11.65;54.89;101097.42;116864;1198;137286;-63
2021/09/30 13:06:34;;;;;;;18.90;11.20;;;;;;;11.67;54.69;101093.76;116906;1193;22287;-64
2021/09/30 13:09:03;;;;;;;11.50;8.90;;;;;;;11.68;54.36;101093.02;116929;1197;22314;-63
2021/09/30 13:11:33;;;;;;;13.00;8.40;;;;;;;11.67;54.53;101086.98;116845;1198;138403;-64
2021/09/30 13:14:16;;;;;;;11.00;8.90;;;;;;;11.68;54.67;101087.77;117038;1198;23184;-64
2021/09/30 13:17:08;;;;;;;18.20;11.10;;;;;;;11.68;54.32;101081.30;116900;1198;137680;-64
2021/09/30 13:19:48;;;;;;;18.40;14.60;;;;;;;11.69;54.44;101079.92;117013;1198;22319;-64
2021/09/30 13:22:18;;;;;;;12.00;9.40;;;;;;;11.67;53.99;101077.79;116898;1198;137703;-63
2021/09/30 13:24:47;;;;;;;13.50;8.10;;;;;;;11.66;54.60;101073.43;116987;1197;23705;-63
2021/09/30 13:27:24;;;;;;;9.40;8.00;;;;;;;11.67;54.79;101072.74;116964;1197;22321;-62
2021/09/30 13:29:52;;;;;;;16.70;12.00;;;;;;;11.69;54.53;101071.70;116764;1199;136838;-62
2021/09/30 13:32:21;;;;;;;15.90;11.30;;;;;;;11.70;54.66;101069.87;117030;1198;22327;-63
2021/09/30 13:34:49;;;;;;;22.60;12.30;;;;;;;11.71;54.75;101065.41;116834;1198;138581;-62
2021/09/30 13:37:17;;;;;;;30.30;17.60;;;;;;;11.73;54.38;101064.69;116912;1198;22361;-63
2021/09/30 13:39:45;;;;;;;55.10;28.70;;;;;;;11.70;54.30;101059.38;116957;1194;22306;-64
2021/09/30 13:42:13;;;;;;;100.20;39.00;;;;;;;11.71;54.53;101059.77;116898;1198;137119;-63
2021/09/30 13:44:41;;;;;;;121.60;46.50;;;;;;;11.70;54.36;101055.67;116972;1198;22350;-64
2021/09/30 13:47:10;;;;;;;16.60;11.10;;;;;;;11.69;54.21;101052.41;116820;1198;138378;-63
2021/09/30 13:49:38;;;;;;;12.20;7.10;;;;;;;11.69;54.27;101050.11;117003;1198;22202;-63
2021/09/30 13:52:06;;;;;;;14.10;8.10;;;;;;;11.69;54.35;101046.63;116825;1198;139501;-64
2021/09/30 13:54:34;;;;;;;12.20;7.60;;;;;;;11.71;54.30;101043.62;116918;1198;23004;-64
2021/09/30 13:57:03;;;;;;;35.00;19.80;;;;;;;11.72;54.52;101045.88;116949;1198;22255;-64
2021/09/30 13:59:39;;;;;;;12.70;9.40;;;;;;;11.72;54.91;101046.92;116906;1198;137406;-63
2021/09/30 14:02:27;;;;;;;26.70;22.20;;;;;;;11.73;54.77;101046.63;116944;1194;23358;-64
2021/09/30 14:05:04;;;;;;;13.40;11.50;;;;;;;11.72;54.38;101043.86;116891;1198;137513;-64
2021/09/30 14:07:35;;;;;;;13.30;8.70;;;;;;;11.71;54.48;101040.72;117018;1198;22360;-64
2021/09/30 14:10:04;;;;;;;27.20;14.30;;;;;;;11.68;54.23;101036.02;116865;1198;138764;-63
2021/09/30 14:12:32;;;;;;;11.80;8.90;;;;;;;11.67;54.34;101036.20;116993;1198;22302;-63
2021/09/30 14:15:09;;;;;;;97.80;34.00;;;;;;;11.66;54.58;101036.13;116976;1197;22351;-63
2021/09/30 14:17:40;;;;;;;93.80;34.60;;;;;;;11.66;55.06;101035.04;116937;1198;137458;-63
2021/09/30 14:20:11;;;;;;;48.50;23.40;;;;;;;11.67;55.61;101034.41;116927;1193;22249;-64
2021/09/30 14:22:44;;;;;;;49.00;41.00;;;;;;;11.67;55.39;101030.32;116890;1198;138558;-64
2021/09/30 14:25:14;;;;;;;16.50;13.00;;;;;;;11.67;55.33;101032.22;116961;1192;22446;-63
2021/09/30 14:27:42;;;;;;;21.20;11.40;;;;;;;11.66;54.87;101031.25;117027;1198;22374;-63